Time;durP1;ratioP1;P1;durP2;ratioP2;P2;SDS_P1;SDS_P2;PMS_P1;PMS_P2;Temp;Humidity;BMP_temperature;BMP_pressure;BME280_temperature;BME280_humidity;BME280_pressure;Samples;Min_cycle;Max_cycle;Signal;HPM_P1;HPM_P2
2021/11/22 00:01:04;;;;;;;;;;;;;;;;;;5053721;28;19964;-77
2021/11/22 00:03:31;;;;;;;;;;;;;;;;;;5055276;28;20006;-77
2021/11/22 00:05:56;;;;;;;;;;;;;;;;;;5056015;28;20282;-77
2021/11/22 00:08:22;;;;;;;;;;;;;;;;;;5054566;28;19913;-77
2021/11/22 00:10:47;;;;;;;;;;;;;;;;;;5055123;28;20011;-77
2021/11/22 00:13:13;;;;;;;;;;;;;;;;;;5055234;28;20004;-77
2021/11/22 00:15:38;;;;;;;;;;;;;;;;;;5053879;28;19944;-77
2021/11/22 00:18:03;;;;;;;;;;;;;;;;;;5054058;28;20366;-78
2021/11/22 00:20:29;;;;;;;;;;;;;;;;;;5051223;28;20019;-77
2021/11/22 00:22:54;;;;;;;;;;;;;;;;;;5054737;28;19920;-77
2021/11/22 00:25:20;;;;;;;;;;;;;;;;;;5054564;28;19912;-78
2021/11/22 00:27:46;;;;;;;;;;;;;;;;;;5054679;28;19917;-77
2021/11/22 00:30:38;;;;;;;;;;;;;;;;;;5045652;28;19913;-79
2021/11/22 00:33:08;;;;;;;;;;;;;;;;;;5053485;28;19916;-77
2021/11/22 00:35:37;;;;;;;;;;;;;;;;;;5054622;28;19973;-77
2021/11/22 00:38:07;;;;;;;;;;;;;;;;;;5054412;28;20003;-77
2021/11/22 00:40:33;;;;;;;;;;;;;;;;;;5053116;28;19917;-77
2021/11/22 00:42:59;;;;;;;;;;;;;;;;;;5054135;28;19916;-77
2021/11/22 00:45:27;;;;;;;;;;;;;;;;;;5053940;28;20014;-77
2021/11/22 00:47:52;;;;;;;;;;;;;;;;;;5054314;28;19913;-77
2021/11/22 00:50:18;;;;;;;;;;;;;;;;;;5054207;28;20011;-77
2021/11/22 00:52:43;;;;;;;;;;;;;;;;;;5054336;28;19913;-77
2021/11/22 00:55:09;;;;;;;;;;;;;;;;;;5053994;28;19913;-77
2021/11/22 00:57:34;;;;;;;;;;;;;;;;;;5052994;28;19963;-77
2021/11/22 01:00:00;;;;;;;;;;;;;;;;;;5053832;28;19935;-77
2021/11/22 01:02:27;;;;;;;;;;;;;;;;;;5054090;28;20008;-77
2021/11/22 01:04:52;;;;;;;;;;;;;;;;;;5052557;28;20333;-77
2021/11/22 01:07:18;;;;;;;;;;;;;;;;;;5053877;28;19913;-77
2021/11/22 01:09:43;;;;;;;;;;;;;;;;;;5053827;28;19919;-77
2021/11/22 01:12:09;;;;;;;;;;;;;;;;;;5053892;28;19965;-77
2021/11/22 01:14:36;;;;;;;;;;;;;;;;;;5053934;28;19909;-77
2021/11/22 01:17:01;;;;;;;;;;;;;;;;;;5052345;28;20366;-77
2021/11/22 01:19:27;;;;;;;;;;;;;;;;;;5053895;28;20011;-77
2021/11/22 01:21:54;;;;;;;;;;;;;;;;;;5052436;28;19988;-77
2021/11/22 01:24:19;;;;;;;;;;;;;;;;;;5052561;28;19931;-77
2021/11/22 01:26:44;;;;;;;;;;;;;;;;;;5053938;28;20406;-77
2021/11/22 01:29:10;;;;;;;;;;;;;;;;;;5052780;28;19962;-77
2021/11/22 01:31:35;;;;;;;;;;;;;;;;;;5053549;28;20389;-77
2021/11/22 01:34:00;;;;;;;;;;;;;;;;;;5053490;28;19966;-77
2021/11/22 01:36:25;;;;;;;;;;;;;;;;;;5053457;28;20355;-77
2021/11/22 01:38:51;;;;;;;;;;;;;;;;;;5052353;28;19971;-77
2021/11/22 01:41:16;;;;;;;;;;;;;;;;;;5052630;28;19925;-78
2021/11/22 01:43:42;;;;;;;;;;;;;;;;;;5052480;28;19925;-77
2021/11/22 01:46:14;;;;;;;;;;;;;;;;;;5053730;28;19970;-77
2021/11/22 01:48:39;;;;;;;;;;;;;;;;;;5056646;28;20405;-78
2021/11/22 01:51:05;;;;;;;;;;;;;;;;;;5057199;28;19920;-78
2021/11/22 01:53:30;;;;;;;;;;;;;;;;;;5061822;28;19978;-78
2021/11/22 01:55:55;;;;;;;;;;;;;;;;;;5060766;28;20280;-77
2021/11/22 01:58:20;;;;;;;;;;;;;;;;;;5057142;28;19913;-77
2021/11/22 02:00:48;;;;;;;;;;;;;;;;;;5057657;28;20015;-77
2021/11/22 02:03:15;;;;;;;;;;;;;;;;;;5057567;28;20386;-78
2021/11/22 02:05:41;;;;;;;;;;;;;;;;;;5057427;28;19912;-78
2021/11/22 02:08:06;;;;;;;;;;;;;;;;;;5058103;28;20428;-78
2021/11/22 02:10:32;;;;;;;;;;;;;;;;;;5057288;28;19919;-78
2021/11/22 02:12:57;;;;;;;;;;;;;;;;;;5057518;28;19962;-78
2021/11/22 02:15:23;;;;;;;;;;;;;;;;;;5057180;28;19919;-78
2021/11/22 02:17:49;;;;;;;;;;;;;;;;;;5057365;28;19958;-78
2021/11/22 02:20:20;;;;;;;;;;;;;;;;;;5057127;28;19917;-78
2021/11/22 02:22:47;;;;;;;;;;;;;;;;;;5057114;28;19923;-77
2021/11/22 02:25:14;;;;;;;;;;;;;;;;;;5055549;28;20158;-77
2021/11/22 02:27:39;;;;;;;;;;;;;;;;;;5057135;28;19912;-78
2021/11/22 02:30:06;;;;;;;;;;;;;;;;;;5057056;28;19916;-77
2021/11/22 02:32:32;;;;;;;;;;;;;;;;;;5056985;28;19966;-77
2021/11/22 02:34:57;;;;;;;;;;;;;;;;;;5056337;28;20343;-77
2021/11/22 02:37:23;;;;;;;;;;;;;;;;;;5056934;28;19919;-77
2021/11/22 02:39:49;;;;;;;;;;;;;;;;;;5056694;28;19939;-77
2021/11/22 02:42:23;;;;;;;;;;;;;;;;;;5056590;28;19916;-76
2021/11/22 02:44:48;;;;;;;;;;;;;;;;;;5056473;28;19963;-76
2021/11/22 02:47:14;;;;;;;;;;;;;;;;;;5056444;28;19913;-76
2021/11/22 02:49:39;;;;;;;;;;;;;;;;;;5056439;28;20354;-76
2021/11/22 02:52:05;;;;;;;;;;;;;;;;;;5056587;28;20008;-77
2021/11/22 02:54:31;;;;;;;;;;;;;;;;;;5055151;28;19912;-77
2021/11/22 02:56:56;;;;;;;;;;;;;;;;;;5056340;28;19913;-76
2021/11/22 02:59:21;;;;;;;;;;;;;;;;;;5056470;28;19920;-76
2021/11/22 03:01:47;;;;;;;;;;;;;;;;;;5056166;28;19960;-77
2021/11/22 03:04:12;;;;;;;;;;;;;;;;;;5055745;28;19919;-77
2021/11/22 03:06:38;;;;;;;;;;;;;;;;;;5054937;28;19912;-77
2021/11/22 03:09:04;;;;;;;;;;;;;;;;;;5056275;28;20270;-77
2021/11/22 03:11:30;;;;;;;;;;;;;;;;;;5056098;28;19919;-77
2021/11/22 03:13:55;;;;;;;;;;;;;;;;;;5055485;28;19916;-77
2021/11/22 03:16:20;;;;;;;;;;;;;;;;;;5056093;28;19958;-77
2021/11/22 03:18:45;;;;;;;;;;;;;;;;;;5056128;28;20347;-76
2021/11/22 03:21:11;;;;;;;;;;;;;;;;;;5055748;28;19960;-76
2021/11/22 03:23:38;;;;;;;;;;;;;;;;;;5055780;28;19913;-77
2021/11/22 03:26:03;;;;;;;;;;;;;;;;;;5055810;28;19912;-76
2021/11/22 03:28:30;;;;;;;;;;;;;;;;;;5055804;28;20409;-75
2021/11/22 03:30:55;;;;;;;;;;;;;;;;;;5054654;28;20323;-76
2021/11/22 03:33:21;;;;;;;;;;;;;;;;;;5055621;28;19955;-76
2021/11/22 03:35:49;;;;;;;;;;;;;;;;;;5054358;28;20351;-76
2021/11/22 03:38:15;;;;;;;;;;;;;;;;;;5055638;28;19919;-76
2021/11/22 03:40:43;;;;;;;;;;;;;;;;;;5053667;28;20359;-77
2021/11/22 03:45:38;;;;;;;;;;;;;;;;;;5055743;28;19999;-78
2021/11/22 03:48:04;;;;;;;;;;;;;;;;;;5057156;28;20294;-77
2021/11/22 03:50:30;;;;;;;;;;;;;;;;;;5055077;28;19913;-76
2021/11/22 03:52:55;;;;;;;;;;;;;;;;;;5055917;28;19923;-75
2021/11/22 03:55:21;;;;;;;;;;;;;;;;;;5056047;28;20410;-76
2021/11/22 03:57:47;;;;;;;;;;;;;;;;;;5055301;28;19913;-76
2021/11/22 04:00:13;;;;;;;;;;;;;;;;;;5055255;28;20374;-75
2021/11/22 04:02:39;;;;;;;;;;;;;;;;;;5055004;28;19913;-76
2021/11/22 04:05:05;;;;;;;;;;;;;;;;;;5054243;28;19932;-76
2021/11/22 04:07:30;;;;;;;;;;;;;;;;;;5053792;28;19912;-76
2021/11/22 04:09:56;;;;;;;;;;;;;;;;;;5055201;28;19939;-76
2021/11/22 04:12:22;;;;;;;;;;;;;;;;;;5055113;28;19913;-76
2021/11/22 04:14:47;;;;;;;;;;;;;;;;;;5053998;28;20328;-76
2021/11/22 04:17:12;;;;;;;;;;;;;;;;;;5054915;28;19912;-76
2021/11/22 04:19:38;;;;;;;;;;;;;;;;;;5053622;28;20400;-76
2021/11/22 04:22:03;;;;;;;;;;;;;;;;;;5054661;28;20328;-76
2021/11/22 04:24:29;;;;;;;;;;;;;;;;;;5054837;28;19912;-75
2021/11/22 04:26:54;;;;;;;;;;;;;;;;;;5054818;28;19913;-75
2021/11/22 04:29:19;;;;;;;;;;;;;;;;;;5054486;28;19912;-75
2021/11/22 04:31:45;;;;;;;;;;;;;;;;;;5054371;28;19913;-75
2021/11/22 04:34:11;;;;;;;;;;;;;;;;;;5054711;28;19920;-76
2021/11/22 04:36:37;;;;;;;;;;;;;;;;;;5054776;28;20286;-76
2021/11/22 04:39:02;;;;;;;;;;;;;;;;;;5053708;28;19913;-76
2021/11/22 04:41:28;;;;;;;;;;;;;;;;;;5053144;28;20317;-76
2021/11/22 04:43:54;;;;;;;;;;;;;;;;;;5053835;28;20011;-76
2021/11/22 04:46:19;;;;;;;;;;;;;;;;;;5054259;28;19966;-76
2021/11/22 04:48:44;;;;;;;;;;;;;;;;;;5054241;28;20003;-76
2021/11/22 04:51:10;;;;;;;;;;;;;;;;;;5054280;28;19912;-75
2021/11/22 04:53:35;;;;;;;;;;;;;;;;;;5054118;28;20356;-76
2021/11/22 04:56:00;;;;;;;;;;;;;;;;;;5053058;28;19962;-76
2021/11/22 04:58:26;;;;;;;;;;;;;;;;;;5054332;28;19923;-76
2021/11/22 05:00:51;;;;;;;;;;;;;;;;;;5054079;28;19916;-76
2021/11/22 05:03:16;;;;;;;;;;;;;;;;;;5054064;28;19912;-76
2021/11/22 05:05:42;;;;;;;;;;;;;;;;;;5053771;28;20392;-75
2021/11/22 05:08:10;;;;;;;;;;;;;;;;;;5054033;28;19912;-76
2021/11/22 05:10:37;;;;;;;;;;;;;;;;;;5053809;28;19920;-76
2021/11/22 05:13:05;;;;;;;;;;;;;;;;;;5053948;28;19916;-76
2021/11/22 05:15:31;;;;;;;;;;;;;;;;;;5053631;28;20431;-76
2021/11/22 05:17:56;;;;;;;;;;;;;;;;;;5053004;28;19940;-76
2021/11/22 05:20:21;;;;;;;;;;;;;;;;;;5052111;28;20363;-75
2021/11/22 05:22:47;;;;;;;;;;;;;;;;;;5053837;28;19916;-76
2021/11/22 05:25:14;;;;;;;;;;;;;;;;;;5053558;28;19919;-76
2021/11/22 05:27:39;;;;;;;;;;;;;;;;;;5053696;28;19913;-76
2021/11/22 05:30:05;;;;;;;;;;;;;;;;;;5053788;28;20330;-76
2021/11/22 05:32:30;;;;;;;;;;;;;;;;;;5053777;28;19912;-77
2021/11/22 05:34:56;;;;;;;;;;;;;;;;;;5053155;28;19920;-77
2021/11/22 05:37:21;;;;;;;;;;;;;;;;;;5053599;28;20015;-76
2021/11/22 05:39:47;;;;;;;;;;;;;;;;;;5052730;28;19909;-76
2021/11/22 05:42:13;;;;;;;;;;;;;;;;;;5053632;28;19970;-76
2021/11/22 05:44:39;;;;;;;;;;;;;;;;;;5053177;28;19921;-76
2021/11/22 05:47:06;;;;;;;;;;;;;;;;;;5053508;28;19959;-75
2021/11/22 05:49:33;;;;;;;;;;;;;;;;;;5051263;28;19913;-77
2021/11/22 05:51:59;;;;;;;;;;;;;;;;;;5051871;28;19920;-76
2021/11/22 05:54:25;;;;;;;;;;;;;;;;;;5053501;28;19913;-76
2021/11/22 05:56:50;;;;;;;;;;;;;;;;;;5052676;28;19913;-77
2021/11/22 05:59:16;;;;;;;;;;;;;;;;;;5053503;28;20274;-76
2021/11/22 06:01:41;;;;;;;;;;;;;;;;;;5052752;28;19921;-77
2021/11/22 06:04:06;;;;;;;;;;;;;;;;;;5052470;28;19919;-77
2021/11/22 06:06:32;;;;;;;;;;;;;;;;;;5052051;28;19919;-76
2021/11/22 06:08:57;;;;;;;;;;;;;;;;;;5053353;28;19912;-76
2021/11/22 06:11:22;;;;;;;;;;;;;;;;;;5053397;28;19958;-76
2021/11/22 06:13:49;;;;;;;;;;;;;;;;;;5053357;28;19913;-75
2021/11/22 06:16:14;;;;;;;;;;;;;;;;;;5053295;28;20289;-75
2021/11/22 06:18:39;;;;;;;;;;;;;;;;;;5053107;28;19916;-76
2021/11/22 06:21:05;;;;;;;;;;;;;;;;;;5053146;28;19916;-76
2021/11/22 06:23:30;;;;;;;;;;;;;;;;;;5053234;28;19916;-76
2021/11/22 06:25:56;;;;;;;;;;;;;;;;;;5053133;28;19917;-76
2021/11/22 06:28:21;;;;;;;;;;;;;;;;;;5053259;28;20255;-76
2021/11/22 06:30:47;;;;;;;;;;;;;;;;;;5053057;28;20277;-76
2021/11/22 06:33:12;;;;;;;;;;;;;;;;;;5051939;28;19921;-76
2021/11/22 06:35:38;;;;;;;;;;;;;;;;;;5053013;28;19913;-76
2021/11/22 06:38:03;;;;;;;;;;;;;;;;;;5053541;28;19924;-76
2021/11/22 06:40:29;;;;;;;;;;;;;;;;;;5056647;28;19995;-76
2021/11/22 06:42:54;;;;;;;;;;;;;;;;;;5056739;28;19912;-76
2021/11/22 06:45:19;;;;;;;;;;;;;;;;;;5055099;28;19920;-75
2021/11/22 06:47:45;;;;;;;;;;;;;;;;;;5056816;28;19970;-76
2021/11/22 06:50:11;;;;;;;;;;;;;;;;;;5056476;28;19912;-76
2021/11/22 06:52:36;;;;;;;;;;;;;;;;;;5056617;28;19919;-75
2021/11/22 06:55:02;;;;;;;;;;;;;;;;;;5056437;28;19956;-76
2021/11/22 06:57:28;;;;;;;;;;;;;;;;;;5056417;28;20309;-76
2021/11/22 06:59:54;;;;;;;;;;;;;;;;;;5055217;28;19908;-76
2021/11/22 07:02:23;;;;;;;;;;;;;;;;;;5055648;28;19991;-76
2021/11/22 07:04:49;;;;;;;;;;;;;;;;;;5054332;28;19970;-76
2021/11/22 07:07:15;;;;;;;;;;;;;;;;;;5056585;28;19958;-78
2021/11/22 07:09:41;;;;;;;;;;;;;;;;;;5056195;28;19913;-75
2021/11/22 07:12:08;;;;;;;;;;;;;;;;;;5056137;28;19912;-75
2021/11/22 07:14:36;;;;;;;;;;;;;;;;;;5056098;28;19912;-76
2021/11/22 07:17:01;;;;;;;;;;;;;;;;;;5056163;28;19966;-77
2021/11/22 07:19:26;;;;;;;;;;;;;;;;;;5055856;28;19916;-76
2021/11/22 07:21:53;;;;;;;;;;;;;;;;;;5056067;28;19920;-76
2021/11/22 07:24:19;;;;;;;;;;;;;;;;;;5055784;28;19982;-76
2021/11/22 07:26:44;;;;;;;;;;;;;;;;;;5056000;28;20362;-76
2021/11/22 07:29:10;;;;;;;;;;;;;;;;;;5055682;28;19958;-74
2021/11/22 07:31:35;;;;;;;;;;;;;;;;;;5055442;28;20358;-74
2021/11/22 07:34:00;;;;;;;;;;;;;;;;;;5055382;28;19913;-75
2021/11/22 07:36:26;;;;;;;;;;;;;;;;;;5055696;28;19913;-75
2021/11/22 07:38:51;;;;;;;;;;;;;;;;;;5055348;28;19916;-75
2021/11/22 07:41:17;;;;;;;;;;;;;;;;;;5055684;28;19917;-75
2021/11/22 07:43:42;;;;;;;;;;;;;;;;;;5055334;28;20054;-75
2021/11/22 07:46:07;;;;;;;;;;;;;;;;;;5055333;28;19923;-75
2021/11/22 07:48:33;;;;;;;;;;;;;;;;;;5054943;28;19934;-75
2021/11/22 07:50:58;;;;;;;;;;;;;;;;;;5054892;28;19919;-75
2021/11/22 07:53:24;;;;;;;;;;;;;;;;;;5055202;28;19913;-75
2021/11/22 07:55:49;;;;;;;;;;;;;;;;;;5055019;28;19912;-75
2021/11/22 07:58:15;;;;;;;;;;;;;;;;;;5055136;28;19917;-75
2021/11/22 08:00:40;;;;;;;;;;;;;;;;;;5055118;28;19923;-75
2021/11/22 08:03:06;;;;;;;;;;;;;;;;;;5054810;28;20003;-75
2021/11/22 08:05:32;;;;;;;;;;;;;;;;;;5054374;28;19919;-75
2021/11/22 08:07:58;;;;;;;;;;;;;;;;;;5053968;28;19936;-75
2021/11/22 08:10:26;;;;;;;;;;;;;;;;;;5053973;28;20367;-75
2021/11/22 08:12:52;;;;;;;;;;;;;;;;;;5054977;28;19920;-75
2021/11/22 08:15:19;;;;;;;;;;;;;;;;;;5054739;28;19912;-75
2021/11/22 08:17:45;;;;;;;;;;;;;;;;;;5053941;28;19912;-75
2021/11/22 08:20:11;;;;;;;;;;;;;;;;;;5034920;28;19913;-75
2021/11/22 08:22:36;;;;;;;;;;;;;;;;;;5000821;28;19925;-76
2021/11/22 08:25:03;;;;;;;;;;;;;;;;;;5035275;28;19920;-75
2021/11/22 08:27:28;;;;;;;;;;;;;;;;;;5036559;28;19948;-76
2021/11/22 08:29:54;;;;;;;;;;;;;;;;;;5034679;28;19920;-76
2021/11/22 08:32:20;;;;;;;;;;;;;;;;;;5034589;28;19913;-77
2021/11/22 08:34:46;;;;;;;;;;;;;;;;;;5034386;28;19921;-75
2021/11/22 08:37:11;;;;;;;;;;;;;;;;;;5032963;28;19913;-75
2021/11/22 08:39:37;;;;;;;;;;;;;;;;;;5033371;28;19917;-74
2021/11/22 08:42:04;;;;;;;;;;;;;;;;;;5034730;28;20332;-77
2021/11/22 08:44:30;;;;;;;;;;;;;;;;;;5034884;28;20288;-76
2021/11/22 08:46:56;;;;;;;;;;;;;;;;;;5034474;28;19916;-76
2021/11/22 08:49:21;;;;;;;;;;;;;;;;;;5047629;28;19920;-75
2021/11/22 08:51:46;;;;;;;;;;;;;;;;;;5054136;28;19913;-75
2021/11/22 08:54:12;;;;;;;;;;;;;;;;;;5054301;28;20385;-75
2021/11/22 08:56:38;;;;;;;;;;;;;;;;;;5054402;28;20270;-74
2021/11/22 08:59:03;;;;;;;;;;;;;;;;;;5053580;28;19913;-74
2021/11/22 09:01:29;;;;;;;;;;;;;;;;;;5053481;28;19916;-76
2021/11/22 09:03:55;;;;;;;;;;;;;;;;;;5053988;28;19913;-74
2021/11/22 09:06:21;;;;;;;;;;;;;;;;;;5053665;28;20353;-74
2021/11/22 09:08:47;;;;;;;;;;;;;;;;;;5053317;28;19917;-74
2021/11/22 09:11:12;;;;;;;;;;;;;;;;;;5052719;28;19958;-74
2021/11/22 09:13:38;;;;;;;;;;;;;;;;;;5053845;28;20003;-74
2021/11/22 09:16:04;;;;;;;;;;;;;;;;;;5053073;28;19998;-74
2021/11/22 09:18:29;;;;;;;;;;;;;;;;;;5053759;28;19991;-74
2021/11/22 09:20:54;;;;;;;;;;;;;;;;;;5053858;28;19916;-74
2021/11/22 09:23:20;;;;;;;;;;;;;;;;;;5053570;28;20031;-74
2021/11/22 09:25:45;;;;;;;;;;;;;;;;;;5053831;28;19916;-74
2021/11/22 09:28:11;;;;;;;;;;;;;;;;;;5053751;28;19942;-74
2021/11/22 09:30:36;;;;;;;;;;;;;;;;;;5052439;28;19958;-75
2021/11/22 09:33:04;;;;;;;;;;;;;;;;;;5053496;28;19948;-74
2021/11/22 09:35:29;;;;;;;;;;;;;;;;;;5053578;28;19913;-72
2021/11/22 09:37:54;;;;;;;;;;;;;;;;;;5052013;28;19919;-73
2021/11/22 09:40:20;;;;;;;;;;;;;;;;;;5053161;28;19913;-73
2021/11/22 09:42:45;;;;;;;;;;;;;;;;;;5053462;28;19959;-73
2021/11/22 09:45:11;;;;;;;;;;;;;;;;;;5053110;28;19916;-76
2021/11/22 09:47:37;;;;;;;;;;;;;;;;;;5053427;28;20397;-75
2021/11/22 09:50:03;;;;;;;;;;;;;;;;;;5052978;28;20015;-75
2021/11/22 09:52:29;;;;;;;;;;;;;;;;;;5052567;28;19912;-75
2021/11/22 09:54:55;;;;;;;;;;;;;;;;;;5052909;28;19913;-75
2021/11/22 09:57:20;;;;;;;;;;;;;;;;;;5052871;28;19935;-75
2021/11/22 09:59:46;;;;;;;;;;;;;;;;;;5053179;28;19923;-74
2021/11/22 10:02:11;;;;;;;;;;;;;;;;;;5053400;28;20000;-75
2021/11/22 10:04:37;;;;;;;;;;;;;;;;;;5052409;28;19913;-73
2021/11/22 10:07:04;;;;;;;;;;;;;;;;;;5053323;28;19916;-73
2021/11/22 10:09:29;;;;;;;;;;;;;;;;;;5050250;28;20271;-73
2021/11/22 10:11:55;;;;;;;;;;;;;;;;;;5052962;28;19913;-73
2021/11/22 10:14:27;;;;;;;;;;;;;;;;;;5050853;28;20382;-73
2021/11/22 10:16:53;;;;;;;;;;;;;;;;;;5057303;28;19944;-74
2021/11/22 10:19:19;;;;;;;;;;;;;;;;;;5050437;28;20311;-74
2021/11/22 10:21:44;;;;;;;;;;;;;;;;;;5053857;28;19924;-75
2021/11/22 10:24:10;;;;;;;;;;;;;;;;;;5056070;28;19913;-75
2021/11/22 10:26:42;;;;;;;;;;;;;;;;;;5052967;28;19921;-75
2021/11/22 10:29:09;;;;;;;;;;;;;;;;;;5055821;28;19912;-75
2021/11/22 10:31:35;;;;;;;;;;;;;;;;;;5056433;28;19913;-74
2021/11/22 10:34:01;;;;;;;;;;;;;;;;;;5056657;28;19917;-75
2021/11/22 10:36:28;;;;;;;;;;;;;;;;;;5057083;28;20011;-75
2021/11/22 10:38:57;;;;;;;;;;;;;;;;;;5041073;28;20448;-73
2021/11/22 10:41:22;;;;;;;;;;;;;;;;;;5036635;28;19917;-74
2021/11/22 10:43:52;;;;;;;;;;;;;;;;;;5036799;28;19936;-73
2021/11/22 10:46:38;;;;;;;;;;;;;;;;;;5036486;28;19936;-74
2021/11/22 10:49:09;;;;;;;;;;;;;;;;;;5036634;28;19913;-75
2021/11/22 10:51:40;;;;;;;;;;;;;;;;;;5056435;28;19965;-74
2021/11/22 10:54:10;;;;;;;;;;;;;;;;;;5056525;28;19913;-77
2021/11/22 10:56:43;;;;;;;;;;;;;;;;;;5055551;28;19913;-73
2021/11/22 10:59:08;;;;;;;;;;;;;;;;;;5056306;28;19920;-73
2021/11/22 11:01:34;;;;;;;;;;;;;;;;;;5056065;28;19917;-73
2021/11/22 11:03:59;;;;;;;;;;;;;;;;;;5055494;28;20298;-74
2021/11/22 11:06:40;;;;;;;;;;;;;;;;;;5056263;28;19958;-74
2021/11/22 11:09:07;;;;;;;;;;;;;;;;;;5054978;28;19916;-74
2021/11/22 11:11:33;;;;;;;;;;;;;;;;;;5055360;28;19913;-75
2021/11/22 11:14:02;;;;;;;;;;;;;;;;;;5056426;28;19909;-75
2021/11/22 11:16:28;;;;;;;;;;;;;;;;;;5055982;28;19913;-75
2021/11/22 11:18:54;;;;;;;;;;;;;;;;;;5056030;28;20003;-75
2021/11/22 11:21:20;;;;;;;;;;;;;;;;;;5055942;28;19974;-76
2021/11/22 11:23:45;;;;;;;;;;;;;;;;;;5056501;28;19912;-76
2021/11/22 11:26:11;;;;;;;;;;;;;;;;;;5058694;28;19935;-79
2021/11/22 11:28:36;;;;;;;;;;;;;;;;;;5057708;28;19944;-75
2021/11/22 11:31:02;;;;;;;;;;;;;;;;;;5055733;28;19914;-75
2021/11/22 11:33:27;;;;;;;;;;;;;;;;;;5055970;28;19920;-74
2021/11/22 11:35:54;;;;;;;;;;;;;;;;;;5055738;28;19912;-75
2021/11/22 11:38:23;;;;;;;;;;;;;;;;;;5054902;28;19940;-75
2021/11/22 11:41:07;;;;;;;;;;;;;;;;;;5055743;28;20286;-75
2021/11/22 11:43:47;;;;;;;;;;;;;;;;;;5055733;28;20007;-75
2021/11/22 11:46:23;;;;;;;;;;;;;;;;;;5055584;28;19916;-75
2021/11/22 11:49:04;;;;;;;;;;;;;;;;;;5055473;28;19920;-75
2021/11/22 11:51:33;;;;;;;;;;;;;;;;;;5055444;28;20011;-75
2021/11/22 11:54:05;;;;;;;;;;;;;;;;;;5055459;28;19935;-74
2021/11/22 11:56:32;;;;;;;;;;;;;;;;;;5054271;28;19955;-75
2021/11/22 11:59:10;;;;;;;;;;;;;;;;;;5055127;28;20083;-75
2021/11/22 12:01:53;;;;;;;;;;;;;;;;;;5055165;28;19923;-75
2021/11/22 12:04:18;;;;;;;;;;;;;;;;;;5055073;28;20313;-75
2021/11/22 12:06:51;;;;;;;;;;;;;;;;;;5054148;28;19913;-75
2021/11/22 12:09:29;;;;;;;;;;;;;;;;;;5053885;28;19920;-75
2021/11/22 12:11:57;;;;;;;;;;;;;;;;;;5055009;28;20397;-75
2021/11/22 12:14:41;;;;;;;;;;;;;;;;;;5055024;28;20015;-75
2021/11/22 12:17:06;;;;;;;;;;;;;;;;;;5055041;28;19916;-73
2021/11/22 12:19:32;;;;;;;;;;;;;;;;;;5055428;28;20422;-76
2021/11/22 12:22:08;;;;;;;;;;;;;;;;;;5054540;28;19932;-76
2021/11/22 12:24:38;;;;;;;;;;;;;;;;;;5054479;28;19923;-75
2021/11/22 12:27:22;;;;;;;;;;;;;;;;;;5054542;28;19912;-75
2021/11/22 12:29:47;;;;;;;;;;;;;;;;;;5054787;28;19912;-75
2021/11/22 12:32:25;;;;;;;;;;;;;;;;;;5054552;28;19912;-73
2021/11/22 12:35:01;;;;;;;;;;;;;;;;;;5053506;28;19919;-73
2021/11/22 12:37:33;;;;;;;;;;;;;;;;;;5053274;28;19939;-74
2021/11/22 12:40:12;;;;;;;;;;;;;;;;;;5054316;28;20349;-73
2021/11/22 12:43:04;;;;;;;;;;;;;;;;;;5054355;28;20038;-75
2021/11/22 12:45:29;;;;;;;;;;;;;;;;;;5049902;28;19978;-73
2021/11/22 12:47:55;;;;;;;;;;;;;;;;;;5054365;28;19913;-73
2021/11/22 12:50:22;;;;;;;;;;;;;;;;;;5054364;28;20035;-73
2021/11/22 12:53:07;;;;;;;;;;;;;;;;;;5053110;28;20366;-73
2021/11/22 12:55:34;;;;;;;;;;;;;;;;;;5053926;28;19916;-72
2021/11/22 12:58:07;;;;;;;;;;;;;;;;;;5054150;28;19912;-73
2021/11/22 13:00:34;;;;;;;;;;;;;;;;;;5053828;28;19912;-73
2021/11/22 13:02:59;;;;;;;;;;;;;;;;;;5053171;28;19912;-73
2021/11/22 13:05:43;;;;;;;;;;;;;;;;;;5053976;28;20007;-73
2021/11/22 13:08:28;;;;;;;;;;;;;;;;;;5053599;28;19912;-73
2021/11/22 13:10:56;;;;;;;;;;;;;;;;;;5053942;28;19963;-73
2021/11/22 13:13:40;;;;;;;;;;;;;;;;;;5053892;28;19919;-73
2021/11/22 13:16:11;;;;;;;;;;;;;;;;;;5052696;28;19942;-73
2021/11/22 13:18:37;;;;;;;;;;;;;;;;;;5053818;28;19923;-73
2021/11/22 13:21:06;;;;;;;;;;;;;;;;;;5053863;28;20366;-73
2021/11/22 13:23:36;;;;;;;;;;;;;;;;;;5054157;28;19920;-73
2021/11/22 13:26:03;;;;;;;;;;;;;;;;;;5053902;28;19913;-73
2021/11/22 13:28:32;;;;;;;;;;;;;;;;;;5053755;28;20281;-73
2021/11/22 13:31:03;;;;;;;;;;;;;;;;;;5053671;28;20250;-73
2021/11/22 13:33:29;;;;;;;;;;;;;;;;;;5053571;28;19966;-73
2021/11/22 13:35:56;;;;;;;;;;;;;;;;;;5053837;28;20293;-73
2021/11/22 13:38:22;;;;;;;;;;;;;;;;;;5053759;28;19960;-73
2021/11/22 13:40:49;;;;;;;;;;;;;;;;;;5052559;28;19974;-73
2021/11/22 13:43:17;;;;;;;;;;;;;;;;;;5053470;28;20305;-73
2021/11/22 13:45:52;;;;;;;;;;;;;;;;;;5052063;28;19924;-73
2021/11/22 13:48:17;;;;;;;;;;;;;;;;;;5057480;28;19935;-73
2021/11/22 13:50:47;;;;;;;;;;;;;;;;;;5057748;28;20354;-73
2021/11/22 13:53:13;;;;;;;;;;;;;;;;;;5057663;28;19974;-73
2021/11/22 13:55:40;;;;;;;;;;;;;;;;;;5057317;28;19916;-73
2021/11/22 13:58:13;;;;;;;;;;;;;;;;;;5056369;28;19920;-73
2021/11/22 14:00:59;;;;;;;;;;;;;;;;;;5057471;28;20007;-73
2021/11/22 14:03:28;;;;;;;;;;;;;;;;;;5057017;28;20313;-73
2021/11/22 14:05:54;;;;;;;;;;;;;;;;;;5056533;28;19912;-73
2021/11/22 14:08:19;;;;;;;;;;;;;;;;;;5057389;28;19946;-73
2021/11/22 14:10:44;;;;;;;;;;;;;;;;;;5056748;28;19917;-75
2021/11/22 14:13:10;;;;;;;;;;;;;;;;;;5056210;28;20355;-73
2021/11/22 14:15:37;;;;;;;;;;;;;;;;;;5057243;28;19916;-72
2021/11/22 14:18:03;;;;;;;;;;;;;;;;;;5057176;28;20380;-73
2021/11/22 14:20:29;;;;;;;;;;;;;;;;;;5055990;28;19919;-73
2021/11/22 14:23:00;;;;;;;;;;;;;;;;;;5057112;28;19921;-73
2021/11/22 14:25:27;;;;;;;;;;;;;;;;;;5056980;28;19923;-73
2021/11/22 14:27:55;;;;;;;;;;;;;;;;;;5056817;28;19912;-73
2021/11/22 14:30:27;;;;;;;;;;;;;;;;;;5057003;28;19913;-73
2021/11/22 14:33:00;;;;;;;;;;;;;;;;;;5056307;28;20362;-72
2021/11/22 14:35:28;;;;;;;;;;;;;;;;;;5056781;28;20339;-72
2021/11/22 14:38:12;;;;;;;;;;;;;;;;;;5056886;28;19999;-72
2021/11/22 14:40:39;;;;;;;;;;;;;;;;;;5056641;28;19913;-73
2021/11/22 14:43:11;;;;;;;;;;;;;;;;;;5056827;28;19920;-73
2021/11/22 14:45:37;;;;;;;;;;;;;;;;;;5055288;28;19966;-73
2021/11/22 14:48:13;;;;;;;;;;;;;;;;;;5056253;28;20369;-72
2021/11/22 14:50:38;;;;;;;;;;;;;;;;;;5055516;28;19951;-73
2021/11/22 14:53:03;;;;;;;;;;;;;;;;;;5056622;28;19963;-73
2021/11/22 14:55:29;;;;;;;;;;;;;;;;;;5056296;28;19919;-73
2021/11/22 14:57:56;;;;;;;;;;;;;;;;;;5056100;28;20324;-73
2021/11/22 15:00:41;;;;;;;;;;;;;;;;;;5056234;28;19920;-73
2021/11/22 15:03:26;;;;;;;;;;;;;;;;;;5047097;28;20015;-73
2021/11/22 15:05:52;;;;;;;;;;;;;;;;;;5046067;28;19913;-73
2021/11/22 15:08:18;;;;;;;;;;;;;;;;;;5043818;28;19913;-72
2021/11/22 15:10:54;;;;;;;;;;;;;;;;;;5046317;28;19913;-72
2021/11/22 15:13:20;;;;;;;;;;;;;;;;;;5045699;28;20314;-72
2021/11/22 15:15:45;;;;;;;;;;;;;;;;;;5045030;28;19917;-72
2021/11/22 15:18:11;;;;;;;;;;;;;;;;;;5046727;28;20379;-72
2021/11/22 15:20:36;;;;;;;;;;;;;;;;;;5045231;28;19913;-73
2021/11/22 15:23:02;;;;;;;;;;;;;;;;;;5043458;28;19920;-72
2021/11/22 15:25:28;;;;;;;;;;;;;;;;;;5046669;28;20031;-72
2021/11/22 15:27:59;;;;;;;;;;;;;;;;;;5045358;28;20366;-73
2021/11/22 15:30:25;;;;;;;;;;;;;;;;;;5045730;28;19912;-72
2021/11/22 15:32:50;;;;;;;;;;;;;;;;;;5041060;28;19936;-72
2021/11/22 15:35:15;;;;;;;;;;;;;;;;;;5045757;28;19916;-73
2021/11/22 15:37:41;;;;;;;;;;;;;;;;;;5055750;28;19913;-72
2021/11/22 15:40:07;;;;;;;;;;;;;;;;;;5054919;28;19916;-72
2021/11/22 15:42:35;;;;;;;;;;;;;;;;;;5055588;28;19924;-72
2021/11/22 15:45:00;;;;;;;;;;;;;;;;;;5054459;28;20366;-72
2021/11/22 15:47:26;;;;;;;;;;;;;;;;;;5055447;28;19916;-72
2021/11/22 15:49:52;;;;;;;;;;;;;;;;;;5055637;28;19999;-74
2021/11/22 15:52:18;;;;;;;;;;;;;;;;;;5055512;28;19913;-72
2021/11/22 15:54:43;;;;;;;;;;;;;;;;;;5054632;28;19909;-72
2021/11/22 15:57:09;;;;;;;;;;;;;;;;;;5054887;28;19935;-72
2021/11/22 15:59:35;;;;;;;;;;;;;;;;;;5053890;28;19974;-72
2021/11/22 16:02:00;;;;;;;;;;;;;;;;;;5055121;28;19960;-72
2021/11/22 16:04:26;;;;;;;;;;;;;;;;;;5053813;28;20309;-72
2021/11/22 16:06:52;;;;;;;;;;;;;;;;;;5055083;28;19913;-72
2021/11/22 16:09:19;;;;;;;;;;;;;;;;;;5054584;28;19920;-72
2021/11/22 16:11:44;;;;;;;;;;;;;;;;;;5041353;28;20003;-71
2021/11/22 16:14:11;;;;;;;;;;;;;;;;;;5038646;28;20333;-72
2021/11/22 16:16:37;;;;;;;;;;;;;;;;;;5035136;28;19920;-73
2021/11/22 16:19:05;;;;;;;;;;;;;;;;;;5044521;28;20248;-72
2021/11/22 16:21:31;;;;;;;;;;;;;;;;;;5046227;28;19917;-72
2021/11/22 16:24:02;;;;;;;;;;;;;;;;;;5049748;28;20298;-72
2021/11/22 16:26:28;;;;;;;;;;;;;;;;;;5041923;28;19935;-73
2021/11/22 16:28:54;;;;;;;;;;;;;;;;;;5034884;28;19919;-73
2021/11/22 16:31:20;;;;;;;;;;;;;;;;;;5035764;28;20349;-73
2021/11/22 16:33:47;;;;;;;;;;;;;;;;;;5038884;28;19916;-72
2021/11/22 16:36:13;;;;;;;;;;;;;;;;;;5042007;28;19944;-73
2021/11/22 16:38:38;;;;;;;;;;;;;;;;;;5026790;28;19964;-72
2021/11/22 16:41:04;;;;;;;;;;;;;;;;;;5034436;28;20304;-72
2021/11/22 16:43:29;;;;;;;;;;;;;;;;;;5036282;28;20390;-73
2021/11/22 16:45:55;;;;;;;;;;;;;;;;;;5042772;28;20363;-73
2021/11/22 16:48:21;;;;;;;;;;;;;;;;;;5043050;28;20313;-72